Umar1 — 9HA2498 — position and weather

sailwx.info

Track history (hours):
 
Tides and Currents Weather Stations Pressure Air Temp Water Temp Dewpoint Dewpoint Depression Visibility Wind Speed Wind Dir Waves Ship Positions

Umar1

Last reported at 2017-Feb-17 15:33 UTC. Time now 2017-Feb-22 17:40 UTC.
Position N 36°41' E 014°22'.

Length 100 m; draft 6.6 m.

Type: Tanker. MMSI: 248751000.

Date/timePositionNaut miles runAvg speedWind from/ knotsBaromVisibWave heightAir tempDewpointWater temp
2017-Feb-17 15:33N 36°41' E 014°22'1211.5
2017-Feb-17 14:33N 36°43' E 014°08'  
2017-Feb-13 23:20N 35°56' W 005°15'4 4.6
2017-Feb-13 22:31N 35°54' W 005°19'0 0.0
2017-Feb-13 21:31N 35°54' W 005°19'0 0.0
2017-Feb-13 20:31N 35°54' W 005°19'0 0.0
2017-Feb-13 19:31N 35°54' W 005°19'0 0.4
2017-Feb-13 18:33N 35°54' W 005°19'3 2.6
2017-Feb-13 17:33N 35°55' W 005°21'0 0.0
2017-Feb-13 16:33N 35°55' W 005°21'0 0.1
2017-Feb-13 15:34N 35°55' W 005°21'4 3.9
2017-Feb-13 14:33N 35°57' W 005°25'  
2017-Feb-08 09:20N 49°37' W 000°35'911.3
2017-Feb-08 08:33N 49°33' W 000°22'1110.9
2017-Feb-08 07:33N 49°30' W 000°06'1010.2
2017-Feb-08 06:33N 49°26' E 000°08'9 8.9
2017-Feb-08 05:33N 49°26' E 000°22'7 2.3
2017-Feb-08 02:31N 49°28' E 000°32'0 0.0
2017-Feb-08 01:31N 49°28' E 000°32'0 0.0
2017-Feb-08 00:28N 49°28' E 000°32'0 0.0
2017-Feb-07 23:28N 49°28' E 000°32'0 0.0
2017-Feb-07 22:31N 49°28' E 000°32'0 0.0
2017-Feb-07 21:28N 49°28' E 000°32'0 0.0
2017-Feb-07 20:16N 49°28' E 000°32'0 0.0
2017-Feb-07 19:25N 49°28' E 000°32'0 0.0
2017-Feb-07 18:31N 49°28' E 000°32'  
Track history (hours):
 
Tides and Currents Weather Stations Pressure Air Temp Water Temp Dewpoint Dewpoint Depression Visibility Wind Speed Wind Dir Waves Ship Positions

Umar1

Last reported at 2017-Feb-17 15:33 UTC. Time now 2017-Feb-22 17:40 UTC.
Position N 36°41' E 014°22'.

Length 100 m; draft 6.6 m.

Type: Tanker. MMSI: 248751000.

Date/timePositionNaut miles runAvg speedWind from/ knotsBaromVisibWave heightAir tempDewpointWater temp
2017-Feb-17 15:33N 36°41' E 014°22'1211.5
2017-Feb-17 14:33N 36°43' E 014°08'  
2017-Feb-13 23:20N 35°56' W 005°15'4 4.6
2017-Feb-13 22:31N 35°54' W 005°19'0 0.0
2017-Feb-13 21:31N 35°54' W 005°19'0 0.0
2017-Feb-13 20:31N 35°54' W 005°19'0 0.0
2017-Feb-13 19:31N 35°54' W 005°19'0 0.4
2017-Feb-13 18:33N 35°54' W 005°19'3 2.6
2017-Feb-13 17:33N 35°55' W 005°21'0 0.0
2017-Feb-13 16:33N 35°55' W 005°21'0 0.1
2017-Feb-13 15:34N 35°55' W 005°21'4 3.9
2017-Feb-13 14:33N 35°57' W 005°25'  
2017-Feb-08 09:20N 49°37' W 000°35'911.3
2017-Feb-08 08:33N 49°33' W 000°22'1110.9
2017-Feb-08 07:33N 49°30' W 000°06'1010.2
2017-Feb-08 06:33N 49°26' E 000°08'9 8.9
2017-Feb-08 05:33N 49°26' E 000°22'7 2.3
2017-Feb-08 02:31N 49°28' E 000°32'0 0.0
2017-Feb-08 01:31N 49°28' E 000°32'0 0.0
2017-Feb-08 00:28N 49°28' E 000°32'0 0.0
2017-Feb-07 23:28N 49°28' E 000°32'0 0.0
2017-Feb-07 22:31N 49°28' E 000°32'0 0.0
2017-Feb-07 21:28N 49°28' E 000°32'0 0.0
2017-Feb-07 20:16N 49°28' E 000°32'0 0.0
2017-Feb-07 19:25N 49°28' E 000°32'0 0.0
2017-Feb-07 18:31N 49°28' E 000°32'  

Dump ship's entire track history